Time;durP1;ratioP1;P1;durP2;ratioP2;P2;SDS_P1;SDS_P2;PMS_P1;PMS_P2;Temp;Humidity;BMP_temperature;BMP_pressure;BME280_temperature;BME280_humidity;BME280_pressure;Samples;Min_cycle;Max_cycle;Signal;HPM_P1;HPM_P2
2023/10/30 00:02:02;;;;;;;0.10;0.10;;;20.10;48.30;;;;;;5054335;28;20562;-51
2023/10/30 00:04:33;;;;;;;0.10;0.10;;;20.10;48.30;;;;;;5053751;28;20192;-49
2023/10/30 00:07:04;;;;;;;0.03;0.03;;;20.20;48.40;;;;;;5055224;28;20263;-50
2023/10/30 00:09:35;;;;;;;0.08;0.08;;;20.20;48.40;;;;;;5055546;28;20203;-53
2023/10/30 00:12:08;;;;;;;0.10;0.10;;;20.20;48.40;;;;;;5054315;28;20195;-52
2023/10/30 00:14:38;;;;;;;0.10;0.10;;;20.20;48.50;;;;;;5054496;28;20546;-54
2023/10/30 00:17:09;;;;;;;0.10;0.10;;;20.30;48.60;;;;;;5062820;28;20203;-53
2023/10/30 00:19:39;;;;;;;0.17;0.17;;;20.30;48.50;;;;;;5054064;28;20603;-53
2023/10/30 00:22:11;;;;;;;0.10;0.10;;;20.30;48.60;;;;;;5070195;28;20195;-52
2023/10/30 00:24:41;;;;;;;0.08;0.08;;;20.30;48.60;;;;;;5087137;22;20211;-57
2023/10/30 00:27:16;;;;;;;0.10;0.10;;;20.40;48.70;;;;;;5053415;28;20714;-59
2023/10/30 00:29:47;;;;;;;0.10;0.10;;;20.40;48.70;;;;;;5053569;28;20202;-59
2023/10/30 00:32:17;;;;;;;0.00;0.00;;;20.40;48.80;;;;;;5053375;28;20191;-59
2023/10/30 00:34:48;;;;;;;0.00;0.00;;;20.50;48.90;;;;;;5053256;28;20195;-59
2023/10/30 00:37:18;;;;;;;0.10;0.10;;;20.50;48.90;;;;;;5053477;28;20195;-59
2023/10/30 00:39:49;;;;;;;0.10;0.10;;;20.50;48.90;;;;;;5051383;28;20566;-57
2023/10/30 00:42:25;;;;;;;0.10;0.10;;;20.50;48.90;;;;;;5053643;28;20198;-60
2023/10/30 00:44:56;;;;;;;0.17;0.17;;;20.50;49.00;;;;;;5053542;28;20245;-59
2023/10/30 00:47:26;;;;;;;0.00;0.00;;;20.60;49.00;;;;;;5053182;28;20292;-59
2023/10/30 00:49:57;;;;;;;0.08;0.08;;;20.60;49.00;;;;;;5053495;28;20199;-59
2023/10/30 00:52:27;;;;;;;0.00;0.00;;;20.60;49.10;;;;;;5053309;28;20230;-60
2023/10/30 00:54:58;;;;;;;0.10;0.10;;;20.70;49.20;;;;;;5053239;28;20207;-59
2023/10/30 00:57:31;;;;;;;0.10;0.10;;;20.70;49.20;;;;;;5053256;28;20316;-60
2023/10/30 01:00:01;;;;;;;0.10;0.10;;;20.70;49.30;;;;;;5053182;28;20199;-59
2023/10/30 01:02:32;;;;;;;0.10;0.10;;;20.70;49.20;;;;;;5053291;28;20678;-59
2023/10/30 01:05:02;;;;;;;0.10;0.10;;;20.80;49.20;;;;;;5053797;28;20200;-60
2023/10/30 01:07:33;;;;;;;0.10;0.10;;;20.80;49.20;;;;;;5052983;28;20268;-59
2023/10/30 01:10:04;;;;;;;0.10;0.10;;;20.80;49.20;;;;;;5053304;28;20604;-60
2023/10/30 01:12:36;;;;;;;0.10;0.10;;;20.80;49.20;;;;;;5053251;28;20199;-60
2023/10/30 01:15:07;;;;;;;0.00;0.00;;;20.80;49.20;;;;;;5053182;28;20249;-59
2023/10/30 01:17:38;;;;;;;0.10;0.10;;;20.90;49.20;;;;;;5053173;28;20232;-59
2023/10/30 01:20:10;;;;;;;0.00;0.00;;;20.90;49.30;;;;;;5052866;28;20570;-60
2023/10/30 01:22:40;;;;;;;0.00;0.00;;;20.90;49.30;;;;;;5052959;28;20200;-59
2023/10/30 01:25:11;;;;;;;0.10;0.10;;;21.00;49.30;;;;;;5066100;22;20223;-53
2023/10/30 01:27:44;;;;;;;0.10;0.10;;;21.00;49.30;;;;;;5049983;28;20226;-50
2023/10/30 01:30:15;;;;;;;0.10;0.10;;;21.00;49.50;;;;;;5052265;28;20192;-50
2023/10/30 01:32:46;;;;;;;0.10;0.10;;;21.00;49.40;;;;;;5052218;28;20280;-55
2023/10/30 01:35:17;;;;;;;0.00;0.00;;;21.00;49.30;;;;;;5052703;28;20195;-54
2023/10/30 01:37:47;;;;;;;0.00;0.00;;;21.10;49.30;;;;;;5052233;28;20216;-54
2023/10/30 01:40:18;;;;;;;0.10;0.10;;;21.10;49.40;;;;;;5052152;28;20191;-52
2023/10/30 01:42:50;;;;;;;0.10;0.10;;;21.10;49.40;;;;;;5052364;28;20202;-52
2023/10/30 01:45:21;;;;;;;0.10;0.10;;;21.10;49.30;;;;;;5052519;28;20261;-54
2023/10/30 01:47:52;;;;;;;0.03;0.03;;;21.10;49.30;;;;;;5052069;28;20601;-52
2023/10/30 01:50:23;;;;;;;0.10;0.10;;;21.20;49.40;;;;;;5052239;28;20655;-51
2023/10/30 01:52:54;;;;;;;0.10;0.10;;;21.20;49.40;;;;;;5052159;28;20652;-54
2023/10/30 01:55:24;;;;;;;0.00;0.00;;;21.20;49.30;;;;;;5052294;28;20203;-54
2023/10/30 01:57:57;;;;;;;0.00;0.00;;;21.20;49.30;;;;;;5052355;28;20223;-52
2023/10/30 02:00:28;;;;;;;0.10;0.10;;;21.30;49.40;;;;;;5051873;28;20199;-55
2023/10/30 02:03:01;;;;;;;0.10;0.10;;;21.30;49.40;;;;;;5051998;28;20272;-49
2023/10/30 02:05:32;;;;;;;0.10;0.10;;;21.30;49.40;;;;;;5051953;28;20206;-51
2023/10/30 02:08:03;;;;;;;0.10;0.10;;;21.30;49.40;;;;;;5051689;28;20234;-52
2023/10/30 02:10:33;;;;;;;0.10;0.10;;;21.30;49.40;;;;;;5051912;28;20206;-46
2023/10/30 02:13:09;;;;;;;0.00;0.00;;;21.40;49.40;;;;;;5054094;28;20191;-50
2023/10/30 02:15:40;;;;;;;0.05;0.05;;;21.40;49.40;;;;;;5051638;28;20210;-52
2023/10/30 02:18:10;;;;;;;0.10;0.10;;;21.40;49.40;;;;;;5051674;28;20269;-56
2023/10/30 02:20:41;;;;;;;0.00;0.00;;;21.40;49.40;;;;;;5051798;28;20655;-56
2023/10/30 02:23:16;;;;;;;0.08;0.08;;;21.40;49.40;;;;;;5051404;28;20196;-51
2023/10/30 02:25:48;;;;;;;0.00;0.00;;;21.50;49.40;;;;;;5054410;28;20203;-52
2023/10/30 02:28:19;;;;;;;0.10;0.10;;;21.50;49.70;;;;;;5054387;28;20212;-52
2023/10/30 02:30:50;;;;;;;0.00;0.00;;;21.40;49.20;;;;;;5071883;28;20199;-50
2023/10/30 02:33:20;;;;;;;0.10;0.10;;;21.50;49.10;;;;;;5071739;28;20199;-54
2023/10/30 02:35:51;;;;;;;0.10;0.10;;;21.50;49.10;;;;;;5071622;28;20203;-54
2023/10/30 02:38:21;;;;;;;0.10;0.10;;;21.60;49.20;;;;;;5071936;28;20226;-53
2023/10/30 02:40:54;;;;;;;0.10;0.10;;;21.60;49.10;;;;;;5071279;28;20199;-55
2023/10/30 02:43:24;;;;;;;0.00;0.00;;;21.60;49.00;;;;;;5071141;28;20218;-54
2023/10/30 02:45:55;;;;;;;0.10;0.10;;;21.60;49.00;;;;;;5070524;28;20213;-55
2023/10/30 02:48:26;;;;;;;0.10;0.10;;;21.60;49.00;;;;;;5044503;28;20222;-53
2023/10/30 02:50:59;;;;;;;0.00;0.00;;;21.60;49.00;;;;;;5031702;28;20200;-52
2023/10/30 02:53:30;;;;;;;0.10;0.10;;;21.70;49.00;;;;;;5031685;28;20199;-53
2023/10/30 02:56:03;;;;;;;0.03;0.03;;;21.70;49.10;;;;;;5031570;28;20195;-55
2023/10/30 02:58:33;;;;;;;0.10;0.10;;;21.70;49.10;;;;;;5031399;28;20213;-54
2023/10/30 03:01:04;;;;;;;0.10;0.10;;;21.70;49.00;;;;;;5031439;28;20196;-54
2023/10/30 03:03:35;;;;;;;0.10;0.10;;;21.70;49.00;;;;;;5030681;28;20207;-55
2023/10/30 03:06:06;;;;;;;0.10;0.10;;;21.70;49.00;;;;;;5031272;28;20188;-50
2023/10/30 03:08:37;;;;;;;0.10;0.10;;;21.70;48.90;;;;;;5031604;28;20723;-56
2023/10/30 03:11:10;;;;;;;0.10;0.10;;;21.70;48.90;;;;;;5031806;28;20203;-54
2023/10/30 03:13:41;;;;;;;0.10;0.10;;;21.80;48.90;;;;;;5031342;28;20203;-56
2023/10/30 03:16:12;;;;;;;0.10;0.10;;;21.70;48.80;;;;;;5031595;28;20656;-55
2023/10/30 03:18:42;;;;;;;0.00;0.00;;;21.80;48.80;;;;;;5050877;28;20220;-53
2023/10/30 03:21:13;;;;;;;0.10;0.10;;;21.80;48.80;;;;;;5050995;28;20200;-53
2023/10/30 03:23:44;;;;;;;0.10;0.10;;;21.80;48.80;;;;;;5051303;28;20206;-53
2023/10/30 03:26:16;;;;;;;0.10;0.10;;;21.80;48.80;;;;;;5051901;28;20203;-57
2023/10/30 03:28:47;;;;;;;0.00;0.00;;;21.80;48.80;;;;;;5044736;28;20283;-55
2023/10/30 03:31:18;;;;;;;0.00;0.00;;;21.90;48.80;;;;;;5030823;28;20196;-54
2023/10/30 03:33:48;;;;;;;0.00;0.00;;;21.90;48.80;;;;;;5031323;28;20196;-53
2023/10/30 03:36:22;;;;;;;0.10;0.10;;;21.90;48.90;;;;;;5031330;28;20200;-53
2023/10/30 03:38:53;;;;;;;0.10;0.10;;;21.90;48.80;;;;;;5031695;28;20246;-54
2023/10/30 03:41:25;;;;;;;0.00;0.00;;;21.90;48.80;;;;;;5031687;28;20653;-52
2023/10/30 03:43:56;;;;;;;0.10;0.10;;;21.90;48.80;;;;;;5030911;28;20192;-54
2023/10/30 03:46:27;;;;;;;0.10;0.10;;;21.90;48.80;;;;;;5033134;28;20566;-54
2023/10/30 03:48:57;;;;;;;0.10;0.10;;;21.90;48.80;;;;;;5050926;28;20218;-56
2023/10/30 03:51:28;;;;;;;0.17;0.17;;;21.90;48.80;;;;;;5051164;28;20206;-55
2023/10/30 03:53:59;;;;;;;0.00;0.00;;;21.90;48.80;;;;;;5051330;28;20198;-56
2023/10/30 03:56:31;;;;;;;0.10;0.10;;;21.90;48.80;;;;;;5053014;28;20231;-55
2023/10/30 03:59:02;;;;;;;0.10;0.10;;;21.90;48.70;;;;;;5054532;28;20219;-54
2023/10/30 04:01:32;;;;;;;0.10;0.10;;;21.90;48.70;;;;;;5054546;28;20199;-54
2023/10/30 04:04:03;;;;;;;0.10;0.10;;;21.90;48.70;;;;;;5056295;28;20598;-55
2023/10/30 04:06:34;;;;;;;0.10;0.10;;;21.90;48.70;;;;;;5054104;28;20199;-56
2023/10/30 04:09:06;;;;;;;0.10;0.10;;;21.90;48.70;;;;;;5054303;28;20219;-53
2023/10/30 04:11:39;;;;;;;0.10;0.10;;;21.90;48.70;;;;;;5054640;28;20195;-55
2023/10/30 04:14:09;;;;;;;0.00;0.00;;;21.90;48.70;;;;;;5054488;28;20614;-55
2023/10/30 04:16:40;;;;;;;0.10;0.10;;;21.90;48.70;;;;;;5056507;28;20196;-52
2023/10/30 04:19:11;;;;;;;0.10;0.10;;;21.90;48.80;;;;;;5034021;28;20228;-54
2023/10/30 04:21:41;;;;;;;0.10;0.10;;;22.00;48.70;;;;;;5034107;28;20203;-56
2023/10/30 04:24:12;;;;;;;0.00;0.00;;;21.90;48.70;;;;;;5033930;28;20702;-54
2023/10/30 04:26:45;;;;;;;0.10;0.10;;;22.00;48.70;;;;;;5066628;23;20223;-60
2023/10/30 04:29:15;;;;;;;0.10;0.10;;;21.90;48.70;;;;;;5053638;28;20695;-60
2023/10/30 04:31:46;;;;;;;0.10;0.10;;;21.90;48.70;;;;;;5061985;28;20194;-58
2023/10/30 04:34:18;;;;;;;0.03;0.03;;;21.90;48.70;;;;;;5074023;28;20202;-59
2023/10/30 04:36:49;;;;;;;0.10;0.10;;;21.90;48.70;;;;;;5073890;28;20190;-57
2023/10/30 04:39:19;;;;;;;0.08;0.08;;;22.00;48.70;;;;;;5073394;28;20760;-60
2023/10/30 04:41:53;;;;;;;0.10;0.10;;;21.90;48.60;;;;;;5073382;28;20199;-59
2023/10/30 04:44:24;;;;;;;0.00;0.00;;;21.90;48.60;;;;;;5072580;28;20194;-58
2023/10/30 04:46:54;;;;;;;0.10;0.10;;;21.90;48.60;;;;;;5052421;28;20204;-56
2023/10/30 04:49:25;;;;;;;0.00;0.00;;;22.00;48.60;;;;;;5053338;28;20561;-59
2023/10/30 04:51:56;;;;;;;0.10;0.10;;;22.00;48.60;;;;;;5053548;28;20192;-59
2023/10/30 04:54:26;;;;;;;0.05;0.05;;;22.00;48.60;;;;;;5053012;28;20202;-58
2023/10/30 04:56:59;;;;;;;0.00;0.00;;;22.00;48.60;;;;;;5053265;28;20191;-59
2023/10/30 04:59:29;;;;;;;0.05;0.05;;;22.00;48.60;;;;;;5053544;28;20198;-60
2023/10/30 05:02:01;;;;;;;0.10;0.10;;;22.00;48.60;;;;;;5053240;28;20578;-60
2023/10/30 05:04:33;;;;;;;0.05;0.05;;;22.00;48.60;;;;;;5053205;28;20196;-58
2023/10/30 05:07:03;;;;;;;0.10;0.10;;;22.00;48.50;;;;;;5052513;28;20234;-59
2023/10/30 05:09:36;;;;;;;0.05;0.05;;;22.00;48.60;;;;;;5052818;28;20203;-57
2023/10/30 05:12:09;;;;;;;0.08;0.08;;;22.00;48.50;;;;;;5052858;28;20502;-59
2023/10/30 05:14:39;;;;;;;0.10;0.10;;;22.00;48.50;;;;;;5052575;28;20198;-60
2023/10/30 05:17:10;;;;;;;0.10;0.10;;;22.00;48.60;;;;;;5052951;28;20199;-58
2023/10/30 05:19:41;;;;;;;0.10;0.10;;;22.00;48.60;;;;;;5052898;28;20195;-59
2023/10/30 05:22:11;;;;;;;0.10;0.10;;;22.00;48.60;;;;;;5050427;28;20198;-60
2023/10/30 05:24:42;;;;;;;0.10;0.10;;;21.90;48.50;;;;;;5053313;28;20210;-56
2023/10/30 05:27:14;;;;;;;0.10;0.10;;;21.90;48.50;;;;;;5052386;28;20223;-59
2023/10/30 05:29:45;;;;;;;0.10;0.10;;;22.00;48.50;;;;;;5049391;28;20200;-59
2023/10/30 05:32:16;;;;;;;0.00;0.00;;;22.00;48.60;;;;;;5070957;28;20195;-57
2023/10/30 05:34:46;;;;;;;0.10;0.10;;;22.00;48.50;;;;;;5065286;28;20203;-59
2023/10/30 05:37:17;;;;;;;0.08;0.08;;;21.90;48.40;;;;;;5052204;28;20195;-57
2023/10/30 05:39:48;;;;;;;0.00;0.00;;;21.90;48.40;;;;;;5062214;28;20261;-58
2023/10/30 05:42:21;;;;;;;0.08;0.08;;;21.90;48.40;;;;;;5035553;28;20223;-55
2023/10/30 05:44:53;;;;;;;0.10;0.10;;;22.00;48.50;;;;;;5032091;28;20652;-58
2023/10/30 05:47:23;;;;;;;0.10;0.10;;;22.00;48.50;;;;;;5041961;28;20271;-59
2023/10/30 05:49:55;;;;;;;0.10;0.10;;;21.90;48.40;;;;;;5039729;28;20258;-56
2023/10/30 05:52:26;;;;;;;0.10;0.10;;;21.90;48.40;;;;;;5031805;28;20192;-59
2023/10/30 05:54:56;;;;;;;0.10;0.10;;;21.90;48.40;;;;;;5031801;28;20202;-52
2023/10/30 05:57:29;;;;;;;0.00;0.00;;;21.90;48.40;;;;;;5032747;28;20220;-53
2023/10/30 05:59:59;;;;;;;0.10;0.10;;;21.90;48.40;;;;;;5031101;28;20667;-59
2023/10/30 06:02:30;;;;;;;0.00;0.00;;;21.90;48.40;;;;;;5039513;28;20191;-55
2023/10/30 06:05:01;;;;;;;0.10;0.10;;;21.90;48.40;;;;;;5051178;28;20202;-55
2023/10/30 06:07:31;;;;;;;0.10;0.10;;;21.90;48.40;;;;;;5051113;28;20227;-52
2023/10/30 06:10:02;;;;;;;0.00;0.00;;;21.90;48.40;;;;;;5050932;28;20204;-55
2023/10/30 06:12:37;;;;;;;0.00;0.00;;;21.90;48.40;;;;;;5043118;28;20655;-55
2023/10/30 06:15:09;;;;;;;0.00;0.00;;;21.90;48.40;;;;;;5051773;28;20207;-55
2023/10/30 06:17:40;;;;;;;0.00;0.00;;;21.90;48.40;;;;;;5051490;28;20231;-56
2023/10/30 06:20:11;;;;;;;0.10;0.10;;;21.90;48.40;;;;;;5049528;28;20195;-51
2023/10/30 06:22:42;;;;;;;0.10;0.10;;;21.90;48.30;;;;;;5035665;28;20686;-54
2023/10/30 06:25:13;;;;;;;0.05;0.05;;;21.90;48.40;;;;;;5066660;23;20254;-44
2023/10/30 06:27:45;;;;;;;0.10;0.10;;;21.90;48.30;;;;;;5050996;28;20263;-54
2023/10/30 06:30:17;;;;;;;0.10;0.10;;;21.80;48.30;;;;;;5050778;28;20199;-49
2023/10/30 06:32:47;;;;;;;0.10;0.10;;;21.80;48.30;;;;;;5051372;28;20191;-53
2023/10/30 06:35:18;;;;;;;0.10;0.10;;;21.80;48.30;;;;;;5050143;28;20196;-56
2023/10/30 06:37:50;;;;;;;0.10;0.10;;;21.80;48.30;;;;;;5031167;28;20223;-55
2023/10/30 06:40:20;;;;;;;0.10;0.10;;;21.80;48.30;;;;;;5047752;28;20681;-54
2023/10/30 06:42:53;;;;;;;0.10;0.10;;;21.80;48.30;;;;;;5031867;28;20555;-51
2023/10/30 06:45:24;;;;;;;0.00;0.00;;;21.80;48.30;;;;;;5031403;28;20291;-46
2023/10/30 06:47:55;;;;;;;0.10;0.10;;;21.80;48.30;;;;;;5042782;28;20723;-46
2023/10/30 06:50:25;;;;;;;0.03;0.03;;;21.80;48.20;;;;;;5030567;28;20282;-49
2023/10/30 06:52:57;;;;;;;0.10;0.10;;;21.70;48.20;;;;;;5031165;28;20211;-47
2023/10/30 06:55:27;;;;;;;0.00;0.00;;;21.70;48.10;;;;;;5050839;28;20283;-47
2023/10/30 06:58:00;;;;;;;0.08;0.08;;;21.70;48.20;;;;;;5051340;28;20215;-48
2023/10/30 07:00:31;;;;;;;0.10;0.10;;;21.70;48.20;;;;;;5051163;28;20200;-48
2023/10/30 07:03:01;;;;;;;0.00;0.00;;;21.70;48.20;;;;;;5051197;28;20199;-50
2023/10/30 07:05:32;;;;;;;0.00;0.00;;;21.70;48.10;;;;;;5051160;28;20199;-46
2023/10/30 07:08:03;;;;;;;0.10;0.10;;;21.70;48.10;;;;;;5051070;28;20227;-45
2023/10/30 07:10:33;;;;;;;0.10;0.10;;;21.70;48.10;;;;;;5050712;28;20199;-46
2023/10/30 07:13:06;;;;;;;0.00;0.00;;;21.70;48.10;;;;;;5050953;28;20207;-49
2023/10/30 07:15:37;;;;;;;0.00;0.00;;;21.70;48.10;;;;;;5051426;28;20202;-48
2023/10/30 07:18:08;;;;;;;0.10;0.10;;;21.70;48.10;;;;;;5050625;28;20223;-45
2023/10/30 07:20:38;;;;;;;0.00;0.00;;;21.70;48.10;;;;;;5050354;28;20203;-50
2023/10/30 07:23:09;;;;;;;0.00;0.00;;;21.60;48.00;;;;;;5050933;28;20196;-47
2023/10/30 07:25:40;;;;;;;0.00;0.00;;;21.60;48.00;;;;;;5067117;23;20272;-52
2023/10/30 07:28:16;;;;;;;0.00;0.00;;;21.60;48.00;;;;;;5050609;28;20683;-58
2023/10/30 07:30:46;;;;;;;0.00;0.00;;;21.60;48.00;;;;;;5052196;28;20195;-61
2023/10/30 07:33:17;;;;;;;0.10;0.10;;;21.60;48.00;;;;;;5054266;28;20195;-50
2023/10/30 07:35:47;;;;;;;0.10;0.10;;;21.60;48.00;;;;;;5054790;28;20203;-52
2023/10/30 07:38:18;;;;;;;0.00;0.00;;;21.50;48.20;;;;;;5054631;28;20219;-52
2023/10/30 07:40:49;;;;;;;0.10;0.10;;;21.50;48.00;;;;;;5054703;28;20683;-56
2023/10/30 07:43:21;;;;;;;0.10;0.10;;;21.50;48.00;;;;;;5054789;28;20207;-55
2023/10/30 07:45:52;;;;;;;0.00;0.00;;;21.50;48.00;;;;;;5054610;28;20199;-54
2023/10/30 07:48:23;;;;;;;0.00;0.00;;;21.50;48.00;;;;;;5053843;28;20227;-53
2023/10/30 07:50:53;;;;;;;0.10;0.10;;;21.50;48.00;;;;;;5054515;28;20242;-53
2023/10/30 07:53:24;;;;;;;0.00;0.00;;;21.50;48.00;;;;;;5056903;28;20192;-59
2023/10/30 07:55:55;;;;;;;0.00;0.00;;;21.50;48.00;;;;;;5054753;28;20200;-56
2023/10/30 07:58:27;;;;;;;0.10;0.10;;;21.50;48.00;;;;;;5054785;28;20586;-57
2023/10/30 08:00:58;;;;;;;0.10;0.10;;;21.40;47.90;;;;;;5054581;28;20572;-54
2023/10/30 08:03:28;;;;;;;0.08;0.08;;;21.40;47.90;;;;;;5053524;28;20203;-55
2023/10/30 08:06:02;;;;;;;0.10;0.10;;;21.40;47.90;;;;;;5053928;28;20479;-58
2023/10/30 08:08:32;;;;;;;0.10;0.10;;;21.40;47.90;;;;;;5053850;28;20228;-51
2023/10/30 08:11:03;;;;;;;0.00;0.00;;;21.40;48.00;;;;;;5053820;28;20206;-58
2023/10/30 08:13:36;;;;;;;0.10;0.10;;;21.30;47.90;;;;;;5050494;28;20200;-55
2023/10/30 08:16:07;;;;;;;0.00;0.00;;;21.30;47.90;;;;;;5054097;28;20195;-54
2023/10/30 08:18:37;;;;;;;0.10;0.10;;;21.30;47.90;;;;;;5043400;28;20266;-51
2023/10/30 08:21:09;;;;;;;0.10;0.10;;;21.30;47.90;;;;;;5053058;28;20199;-55
2023/10/30 08:23:39;;;;;;;0.10;0.10;;;21.30;47.90;;;;;;5053306;28;20231;-58
2023/10/30 08:26:10;;;;;;;0.00;0.00;;;21.30;47.90;;;;;;5069130;23;20227;-50
2023/10/30 08:28:44;;;;;;;0.00;0.00;;;21.20;47.90;;;;;;5032679;28;20228;-47
2023/10/30 08:31:17;;;;;;;0.10;0.10;;;21.20;47.90;;;;;;5046940;28;20219;-49
2023/10/30 08:33:48;;;;;;;0.10;0.10;;;21.20;47.90;;;;;;5031977;28;20199;-46
2023/10/30 08:36:24;;;;;;;0.10;0.10;;;21.20;47.90;;;;;;5032987;28;20204;-48
2023/10/30 08:38:55;;;;;;;0.10;0.10;;;21.10;47.90;;;;;;5036441;28;20207;-48
2023/10/30 08:41:26;;;;;;;0.10;0.10;;;21.10;47.90;;;;;;5052835;28;20651;-48
2023/10/30 08:43:58;;;;;;;0.00;0.00;;;21.10;47.90;;;;;;5032469;28;20192;-47
2023/10/30 08:46:29;;;;;;;0.10;0.10;;;21.10;47.80;;;;;;5035805;28;20192;-49
2023/10/30 08:48:59;;;;;;;0.00;0.00;;;21.10;47.80;;;;;;5072322;28;20313;-47
2023/10/30 08:51:30;;;;;;;0.10;0.10;;;21.10;47.80;;;;;;5070606;28;20658;-45
2023/10/30 08:54:01;;;;;;;0.10;0.10;;;21.00;47.80;;;;;;5033618;28;20190;-46
2023/10/30 08:56:32;;;;;;;0.10;0.10;;;21.00;47.80;;;;;;5038818;28;20195;-46
2023/10/30 08:59:05;;;;;;;0.00;0.00;;;21.00;47.80;;;;;;5052600;28;20707;-53
2023/10/30 09:01:36;;;;;;;0.10;0.10;;;21.00;47.80;;;;;;5051866;28;20195;-46
2023/10/30 09:04:06;;;;;;;0.00;0.00;;;20.90;47.70;;;;;;5052217;28;20194;-44
2023/10/30 09:06:37;;;;;;;0.10;0.10;;;20.90;47.70;;;;;;5051872;28;20196;-45
2023/10/30 09:09:08;;;;;;;0.10;0.10;;;20.90;47.70;;;;;;5052182;28;20711;-43
2023/10/30 09:11:38;;;;;;;0.00;0.00;;;20.90;47.70;;;;;;5051575;28;20217;-45
2023/10/30 09:14:11;;;;;;;0.10;0.10;;;20.90;47.70;;;;;;5052479;28;20199;-50
2023/10/30 09:16:41;;;;;;;0.10;0.10;;;20.80;47.70;;;;;;5050755;28;20842;-49
2023/10/30 09:19:12;;;;;;;0.00;0.00;;;20.80;47.70;;;;;;5043150;28;20211;-46
2023/10/30 09:21:43;;;;;;;0.10;0.10;;;20.80;47.70;;;;;;5051443;28;20199;-48
2023/10/30 09:24:13;;;;;;;0.00;0.00;;;20.80;47.70;;;;;;5051784;28;20200;-46
2023/10/30 09:26:44;;;;;;;0.10;0.10;;;20.80;47.70;;;;;;5068181;22;20231;-57
2023/10/30 09:29:17;;;;;;;0.10;0.10;;;20.70;47.60;;;;;;5031984;28;20246;-58
2023/10/30 09:31:49;;;;;;;0.10;0.10;;;20.70;47.60;;;;;;5043957;28;20200;-57
2023/10/30 09:34:20;;;;;;;0.00;0.00;;;20.70;47.60;;;;;;5052005;28;20206;-56
2023/10/30 09:36:50;;;;;;;0.10;0.10;;;20.70;47.60;;;;;;5051166;28;20195;-56
2023/10/30 09:39:21;;;;;;;0.00;0.00;;;20.70;47.60;;;;;;5052300;28;20238;-50
2023/10/30 09:41:54;;;;;;;0.10;0.10;;;20.70;47.60;;;;;;5051577;28;20203;-58
2023/10/30 09:44:27;;;;;;;0.10;0.10;;;20.60;47.60;;;;;;5052265;28;20210;-56
2023/10/30 09:46:58;;;;;;;0.10;0.10;;;20.60;47.60;;;;;;5039837;28;20198;-53
2023/10/30 09:49:30;;;;;;;0.00;0.00;;;20.60;47.60;;;;;;5032075;28;20232;-56
2023/10/30 09:52:04;;;;;;;0.10;0.10;;;20.60;47.60;;;;;;5032004;28;20240;-54
2023/10/30 09:54:36;;;;;;;0.10;0.10;;;20.60;47.70;;;;;;5031867;28;20204;-51
2023/10/30 09:57:07;;;;;;;0.10;0.10;;;20.50;47.60;;;;;;5031659;28;20219;-53
2023/10/30 09:59:40;;;;;;;0.10;0.10;;;20.50;47.70;;;;;;5047223;28;20200;-52
2023/10/30 10:02:11;;;;;;;0.05;0.05;;;20.50;47.60;;;;;;5051343;28;20200;-54
2023/10/30 10:04:42;;;;;;;0.08;0.08;;;20.50;47.70;;;;;;5050271;28;20199;-48
2023/10/30 10:07:13;;;;;;;0.10;0.10;;;20.40;47.60;;;;;;5041203;28;20267;-53
2023/10/30 10:10:02;;;;;;;0.10;0.10;;;20.40;47.60;;;;;;5044582;28;20223;-53
2023/10/30 10:12:33;;;;;;;0.00;0.00;;;20.40;47.60;;;;;;5051219;28;20200;-55
2023/10/30 10:15:08;;;;;;;0.10;0.10;;;20.40;47.60;;;;;;5051268;28;20207;-54
2023/10/30 10:17:45;;;;;;;0.00;0.00;;;20.40;47.60;;;;;;5045992;28;20251;-52
2023/10/30 10:20:16;;;;;;;0.10;0.10;;;20.30;47.50;;;;;;5030646;28;20200;-56
2023/10/30 10:22:47;;;;;;;0.10;0.10;;;20.40;47.60;;;;;;5031717;28;20192;-49
2023/10/30 10:25:18;;;;;;;0.10;0.10;;;20.30;47.60;;;;;;5031137;28;20219;-54
2023/10/30 10:27:50;;;;;;;0.10;0.10;;;20.30;47.60;;;;;;5031127;28;20657;-56
2023/10/30 10:30:25;;;;;;;0.10;0.10;;;20.30;47.60;;;;;;5031096;28;20224;-57
2023/10/30 10:32:59;;;;;;;0.10;0.10;;;20.30;47.60;;;;;;5030331;28;20198;-56
2023/10/30 10:35:32;;;;;;;0.10;0.10;;;20.30;47.60;;;;;;5031229;28;20196;-57
2023/10/30 10:38:21;;;;;;;0.10;0.10;;;20.20;47.60;;;;;;5038189;28;20215;-50
2023/10/30 10:40:52;;;;;;;0.10;0.10;;;20.20;47.60;;;;;;5050713;28;20195;-56
2023/10/30 10:43:23;;;;;;;0.10;0.10;;;20.20;47.60;;;;;;5050363;28;20459;-47
2023/10/30 10:45:56;;;;;;;0.03;0.03;;;20.20;47.60;;;;;;5051504;28;20195;-52
2023/10/30 10:48:28;;;;;;;0.10;0.10;;;20.10;47.60;;;;;;5040573;28;20216;-53
2023/10/30 10:51:03;;;;;;;0.10;0.10;;;20.20;47.60;;;;;;5041290;28;20198;-57
2023/10/30 10:53:38;;;;;;;0.10;0.10;;;20.10;47.60;;;;;;5041967;28;20187;-49
2023/10/30 10:56:10;;;;;;;0.05;0.05;;;20.10;47.60;;;;;;5050722;28;20210;-54
2023/10/30 10:58:46;;;;;;;0.10;0.10;;;20.10;47.60;;;;;;5050404;28;20211;-55
2023/10/30 11:01:20;;;;;;;0.00;0.00;;;20.10;47.60;;;;;;5050962;28;20451;-53
2023/10/30 11:03:51;;;;;;;0.10;0.10;;;20.00;47.50;;;;;;5050235;28;20195;-48
2023/10/30 11:06:24;;;;;;;0.10;0.10;;;20.10;47.60;;;;;;5052321;28;20202;-55
2023/10/30 11:09:01;;;;;;;0.10;0.10;;;20.00;48.20;;;;;;5054181;28;20215;-52
2023/10/30 11:11:37;;;;;;;0.10;0.10;;;20.00;47.60;;;;;;5066449;28;20198;-51
2023/10/30 11:14:19;;;;;;;0.10;0.10;;;20.00;47.60;;;;;;5045817;28;20562;-52
2023/10/30 11:16:58;;;;;;;0.08;0.08;;;20.00;47.60;;;;;;5039426;28;21262;-53
2023/10/30 11:19:30;;;;;;;0.10;0.10;;;19.90;47.60;;;;;;5053696;28;20226;-49
2023/10/30 11:22:01;;;;;;;0.10;0.10;;;19.90;47.60;;;;;;5054670;28;20200;-52
2023/10/30 11:24:42;;;;;;;0.10;0.10;;;19.90;47.60;;;;;;5055240;28;20203;-55
2023/10/30 11:27:38;;;;;;;0.10;0.10;;;19.90;47.70;;;;;;5088752;22;20227;-52
2023/10/30 11:30:11;;;;;;;0.10;0.10;;;19.90;47.70;;;;;;5074771;28;20254;-48
2023/10/30 11:32:57;;;;;;;0.10;0.10;;;19.90;48.20;;;;;;5074981;28;20236;-50
2023/10/30 11:35:30;;;;;;;0.10;0.10;;;19.80;47.60;;;;;;5074856;28;20191;-52
2023/10/30 11:38:01;;;;;;;0.10;0.10;;;19.80;47.60;;;;;;5074534;28;20261;-50
2023/10/30 11:40:31;;;;;;;0.10;0.10;;;19.80;47.60;;;;;;5077034;28;20190;-54
2023/10/30 11:43:08;;;;;;;0.10;0.10;;;19.80;47.70;;;;;;5074359;28;20195;-47
2023/10/30 11:45:42;;;;;;;0.00;0.00;;;19.80;47.60;;;;;;5074273;28;20194;-51
2023/10/30 11:48:16;;;;;;;0.10;0.10;;;19.80;47.70;;;;;;5074294;28;20217;-48
2023/10/30 11:50:48;;;;;;;0.10;0.10;;;19.70;47.60;;;;;;5074535;28;20230;-53
2023/10/30 11:53:21;;;;;;;0.10;0.10;;;19.70;47.60;;;;;;5074641;28;20191;-52
2023/10/30 11:55:53;;;;;;;0.10;0.10;;;19.70;47.60;;;;;;5074397;28;20654;-51
2023/10/30 11:58:24;;;;;;;0.10;0.10;;;19.70;47.60;;;;;;5074265;28;20218;-55
2023/10/30 12:00:54;;;;;;;0.10;0.10;;;19.70;47.60;;;;;;5074672;28;20202;-55
2023/10/30 12:03:27;;;;;;;0.10;0.10;;;19.70;47.60;;;;;;5074465;28;20273;-57
2023/10/30 12:05:58;;;;;;;0.00;0.00;;;19.70;47.70;;;;;;5074408;28;20201;-56
2023/10/30 12:08:28;;;;;;;0.10;0.10;;;19.70;47.70;;;;;;5074372;28;20271;-51
2023/10/30 12:10:59;;;;;;;0.10;0.10;;;19.70;47.80;;;;;;5073804;28;20702;-53
2023/10/30 12:13:30;;;;;;;0.10;0.10;;;19.70;47.80;;;;;;5073568;28;20191;-55
2023/10/30 12:16:01;;;;;;;0.00;0.00;;;19.60;47.70;;;;;;5073874;28;20194;-54
2023/10/30 12:18:34;;;;;;;0.00;0.00;;;19.70;47.70;;;;;;5075146;28;20248;-54
2023/10/30 12:21:04;;;;;;;0.10;0.10;;;19.60;47.70;;;;;;5053775;28;20222;-55
2023/10/30 12:23:35;;;;;;;0.10;0.10;;;19.70;47.80;;;;;;5054049;28;20210;-52
2023/10/30 12:26:09;;;;;;;0.10;0.10;;;19.60;47.70;;;;;;5054535;28;20203;-57
2023/10/30 12:28:40;;;;;;;0.00;0.00;;;19.60;47.70;;;;;;5054310;28;20215;-56
2023/10/30 12:31:21;;;;;;;0.20;0.20;;;19.60;47.70;;;;;;5053828;28;20223;-55
2023/10/30 12:34:09;;;;;;;0.10;0.10;;;19.60;47.70;;;;;;5053999;28;20202;-55
2023/10/30 12:36:40;;;;;;;0.10;0.10;;;19.60;47.70;;;;;;5053472;28;20199;-54
2023/10/30 12:39:18;;;;;;;0.10;0.10;;;19.60;47.60;;;;;;5053775;28;20215;-54
2023/10/30 12:41:49;;;;;;;0.00;0.00;;;19.50;47.70;;;;;;5053833;28;20686;-54
2023/10/30 12:44:20;;;;;;;0.03;0.03;;;19.50;47.70;;;;;;5053449;28;20215;-51
2023/10/30 12:46:51;;;;;;;0.10;0.10;;;19.50;47.70;;;;;;5058721;28;20606;-54
2023/10/30 12:49:23;;;;;;;0.05;0.05;;;19.50;47.80;;;;;;5073151;28;20218;-53
2023/10/30 12:51:54;;;;;;;0.10;0.10;;;19.50;47.80;;;;;;5073390;28;20580;-55
2023/10/30 12:54:24;;;;;;;0.03;0.03;;;19.50;47.80;;;;;;5074248;28;20277;-54
2023/10/30 12:56:55;;;;;;;0.00;0.00;;;19.50;47.90;;;;;;5075517;28;20203;-55
2023/10/30 12:59:26;;;;;;;0.00;0.00;;;19.50;47.80;;;;;;5073161;28;20225;-55
2023/10/30 13:01:56;;;;;;;0.10;0.10;;;19.50;47.80;;;;;;5073207;28;20199;-54
2023/10/30 13:04:30;;;;;;;0.08;0.08;;;19.50;47.80;;;;;;5073142;28;20202;-50
2023/10/30 13:07:00;;;;;;;0.10;0.10;;;19.50;47.80;;;;;;5072919;28;20201;-52
2023/10/30 13:09:31;;;;;;;0.00;0.00;;;19.40;47.70;;;;;;5073071;28;20614;-51
2023/10/30 13:12:02;;;;;;;0.10;0.10;;;19.50;47.80;;;;;;5073200;28;20191;-54